sensor_id;sensor_type;location;lat;lon;timestamp;pressure;altitude;pressure_sealevel;temperature;humidity
6506;BME280;3286;49.858;8.768;2023-04-29T00:01:11;98841.00;;;15.24;57.55
6506;BME280;3286;49.858;8.768;2023-04-29T00:03:38;98834.28;;;15.50;57.21
6506;BME280;3286;49.858;8.768;2023-04-29T00:06:05;98842.41;;;15.42;57.46
6506;BME280;3286;49.858;8.768;2023-04-29T00:08:31;98843.91;;;15.29;57.50
6506;BME280;3286;49.858;8.768;2023-04-29T00:10:59;98843.53;;;15.54;56.96
6506;BME280;3286;49.858;8.768;2023-04-29T00:13:26;98839.31;;;15.60;57.26
6506;BME280;3286;49.858;8.768;2023-04-29T00:15:52;98842.28;;;15.50;57.29
6506;BME280;3286;49.858;8.768;2023-04-29T00:18:19;98838.41;;;15.31;57.78
6506;BME280;3286;49.858;8.768;2023-04-29T00:20:45;98838.91;;;15.41;57.69
6506;BME280;3286;49.858;8.768;2023-04-29T00:23:12;98838.72;;;14.99;58.69
6506;BME280;3286;49.858;8.768;2023-04-29T00:25:39;98835.63;;;15.39;57.86
6506;BME280;3286;49.858;8.768;2023-04-29T00:28:07;98830.25;;;15.32;57.83
6506;BME280;3286;49.858;8.768;2023-04-29T00:30:33;98835.94;;;15.51;57.67
6506;BME280;3286;49.858;8.768;2023-04-29T00:33:00;98842.09;;;15.30;58.09
6506;BME280;3286;49.858;8.768;2023-04-29T00:35:27;98841.25;;;15.29;57.83
6506;BME280;3286;49.858;8.768;2023-04-29T00:37:53;98839.34;;;15.01;58.77
6506;BME280;3286;49.858;8.768;2023-04-29T00:40:20;98834.34;;;14.91;58.96
6506;BME280;3286;49.858;8.768;2023-04-29T00:42:47;98836.19;;;15.13;57.94
6506;BME280;3286;49.858;8.768;2023-04-29T00:45:15;98842.16;;;14.63;59.83
6506;BME280;3286;49.858;8.768;2023-04-29T00:47:42;98842.81;;;14.80;59.32
6506;BME280;3286;49.858;8.768;2023-04-29T00:50:08;98840.91;;;14.96;58.45
6506;BME280;3286;49.858;8.768;2023-04-29T00:52:36;98842.34;;;15.13;57.99
6506;BME280;3286;49.858;8.768;2023-04-29T00:55:05;98844.59;;;14.95;58.19
6506;BME280;3286;49.858;8.768;2023-04-29T00:57:33;98849.88;;;14.58;59.86
6506;BME280;3286;49.858;8.768;2023-04-29T00:59:59;98846.69;;;14.99;58.19
6506;BME280;3286;49.858;8.768;2023-04-29T01:02:28;98850.50;;;14.90;58.61
6506;BME280;3286;49.858;8.768;2023-04-29T01:04:55;98846.06;;;14.97;58.36
6506;BME280;3286;49.858;8.768;2023-04-29T01:07:29;98843.06;;;14.55;59.62
6506;BME280;3286;49.858;8.768;2023-04-29T01:10:01;98851.31;;;14.90;58.89
6506;BME280;3286;49.858;8.768;2023-04-29T01:12:32;98849.59;;;14.53;59.60
6506;BME280;3286;49.858;8.768;2023-04-29T01:15:03;98850.56;;;14.67;58.85
6506;BME280;3286;49.858;8.768;2023-04-29T01:17:36;98845.66;;;15.15;57.69
6506;BME280;3286;49.858;8.768;2023-04-29T01:20:06;98853.91;;;14.54;59.05
6506;BME280;3286;49.858;8.768;2023-04-29T01:22:34;98850.50;;;14.30;60.28
6506;BME280;3286;49.858;8.768;2023-04-29T01:25:03;98863.44;;;14.63;58.96
6506;BME280;3286;49.858;8.768;2023-04-29T01:27:32;98852.31;;;14.59;59.42
6506;BME280;3286;49.858;8.768;2023-04-29T01:30:06;98857.22;;;14.56;59.76
6506;BME280;3286;49.858;8.768;2023-04-29T01:32:42;98849.94;;;14.64;59.12
6506;BME280;3286;49.858;8.768;2023-04-29T01:35:22;98849.13;;;14.49;60.32
6506;BME280;3286;49.858;8.768;2023-04-29T01:37:55;98855.72;;;14.53;60.32
6506;BME280;3286;49.858;8.768;2023-04-29T01:40:29;98857.88;;;14.95;58.98
6506;BME280;3286;49.858;8.768;2023-04-29T01:43:00;98858.94;;;14.78;60.28
6506;BME280;3286;49.858;8.768;2023-04-29T01:45:29;98857.22;;;14.71;60.37
6506;BME280;3286;49.858;8.768;2023-04-29T01:47:58;98846.97;;;15.04;59.68
6506;BME280;3286;49.858;8.768;2023-04-29T01:50:25;98854.91;;;15.19;58.96
6506;BME280;3286;49.858;8.768;2023-04-29T01:52:52;98855.84;;;15.12;59.27
6506;BME280;3286;49.858;8.768;2023-04-29T01:55:19;98856.03;;;15.10;59.52
6506;BME280;3286;49.858;8.768;2023-04-29T01:57:47;98858.75;;;14.50;61.63
6506;BME280;3286;49.858;8.768;2023-04-29T02:00:14;98859.25;;;15.05;59.73
6506;BME280;3286;49.858;8.768;2023-04-29T02:02:40;98854.13;;;15.26;59.11
6506;BME280;3286;49.858;8.768;2023-04-29T02:05:07;98864.53;;;15.20;59.47
6506;BME280;3286;49.858;8.768;2023-04-29T02:07:35;98860.56;;;14.95;60.24
6506;BME280;3286;49.858;8.768;2023-04-29T02:10:02;98858.38;;;15.20;59.29
6506;BME280;3286;49.858;8.768;2023-04-29T02:12:28;98864.66;;;15.12;59.67
6506;BME280;3286;49.858;8.768;2023-04-29T02:14:56;98861.16;;;14.75;60.70
6506;BME280;3286;49.858;8.768;2023-04-29T02:17:24;98868.53;;;14.64;61.49
6506;BME280;3286;49.858;8.768;2023-04-29T02:19:51;98865.50;;;14.68;60.96
6506;BME280;3286;49.858;8.768;2023-04-29T02:22:19;98867.88;;;15.29;59.13
6506;BME280;3286;49.858;8.768;2023-04-29T02:24:46;98871.88;;;14.37;62.12
6506;BME280;3286;49.858;8.768;2023-04-29T02:27:12;98872.59;;;14.75;61.00
6506;BME280;3286;49.858;8.768;2023-04-29T02:29:39;98877.59;;;15.00;60.14
6506;BME280;3286;49.858;8.768;2023-04-29T02:32:07;98880.56;;;14.75;61.21
6506;BME280;3286;49.858;8.768;2023-04-29T02:34:34;98876.72;;;15.15;59.45
6506;BME280;3286;49.858;8.768;2023-04-29T02:37:00;98882.91;;;15.37;58.43
6506;BME280;3286;49.858;8.768;2023-04-29T02:39:27;98886.81;;;15.41;58.09
6506;BME280;3286;49.858;8.768;2023-04-29T02:41:54;98878.59;;;15.58;58.08
6506;BME280;3286;49.858;8.768;2023-04-29T02:44:21;98882.91;;;15.59;58.37
6506;BME280;3286;49.858;8.768;2023-04-29T02:46:48;98891.03;;;14.92;60.12
6506;BME280;3286;49.858;8.768;2023-04-29T02:49:15;98896.44;;;14.69;60.67
6506;BME280;3286;49.858;8.768;2023-04-29T02:51:42;98892.06;;;14.76;60.93
6506;BME280;3286;49.858;8.768;2023-04-29T02:54:09;98897.03;;;15.01;60.00
6506;BME280;3286;49.858;8.768;2023-04-29T02:56:36;98896.41;;;14.99;59.62
6506;BME280;3286;49.858;8.768;2023-04-29T02:59:02;98893.19;;;15.03;59.78
6506;BME280;3286;49.858;8.768;2023-04-29T03:01:29;98898.13;;;15.06;59.58
6506;BME280;3286;49.858;8.768;2023-04-29T03:03:56;98887.09;;;15.25;59.06
6506;BME280;3286;49.858;8.768;2023-04-29T03:06:24;98896.34;;;14.77;60.06
6506;BME280;3286;49.858;8.768;2023-04-29T03:08:52;98887.34;;;14.93;59.46
6506;BME280;3286;49.858;8.768;2023-04-29T03:11:19;98888.41;;;14.09;62.39
6506;BME280;3286;49.858;8.768;2023-04-29T03:13:47;98889.94;;;13.88;62.93
6506;BME280;3286;49.858;8.768;2023-04-29T03:16:14;98888.06;;;14.27;61.96
6506;BME280;3286;49.858;8.768;2023-04-29T03:18:41;98892.94;;;14.53;60.73
6506;BME280;3286;49.858;8.768;2023-04-29T03:21:07;98893.31;;;14.80;60.07
6506;BME280;3286;49.858;8.768;2023-04-29T03:23:35;98885.41;;;14.87;59.26
6506;BME280;3286;49.858;8.768;2023-04-29T03:26:03;98888.72;;;14.44;60.90
6506;BME280;3286;49.858;8.768;2023-04-29T03:28:30;98889.38;;;14.91;59.16
6506;BME280;3286;49.858;8.768;2023-04-29T03:30:56;98889.28;;;14.84;59.36
6506;BME280;3286;49.858;8.768;2023-04-29T03:33:24;98889.00;;;14.94;59.61
6506;BME280;3286;49.858;8.768;2023-04-29T03:35:51;98884.97;;;14.68;59.60
6506;BME280;3286;49.858;8.768;2023-04-29T03:38:17;98887.28;;;14.71;59.86
6506;BME280;3286;49.858;8.768;2023-04-29T03:40:45;98891.81;;;14.47;60.04
6506;BME280;3286;49.858;8.768;2023-04-29T03:43:12;98894.59;;;14.69;60.11
6506;BME280;3286;49.858;8.768;2023-04-29T03:45:39;98892.22;;;14.74;60.05
6506;BME280;3286;49.858;8.768;2023-04-29T03:48:05;98903.00;;;14.88;59.58
6506;BME280;3286;49.858;8.768;2023-04-29T03:50:32;98900.75;;;14.70;59.91
6506;BME280;3286;49.858;8.768;2023-04-29T03:52:59;98899.81;;;14.62;60.46
6506;BME280;3286;49.858;8.768;2023-04-29T03:55:25;98905.19;;;15.14;58.77
6506;BME280;3286;49.858;8.768;2023-04-29T03:57:53;98904.00;;;14.27;61.29
6506;BME280;3286;49.858;8.768;2023-04-29T04:00:20;98908.50;;;14.11;61.28
6506;BME280;3286;49.858;8.768;2023-04-29T04:02:47;98901.28;;;14.50;60.40
6506;BME280;3286;49.858;8.768;2023-04-29T04:05:13;98900.97;;;15.05;58.54
6506;BME280;3286;49.858;8.768;2023-04-29T04:07:40;98907.38;;;14.74;59.56
6506;BME280;3286;49.858;8.768;2023-04-29T04:10:07;98917.91;;;14.14;61.45
6506;BME280;3286;49.858;8.768;2023-04-29T04:12:34;98919.25;;;14.48;60.55
6506;BME280;3286;49.858;8.768;2023-04-29T04:15:01;98925.50;;;14.70;59.57
6506;BME280;3286;49.858;8.768;2023-04-29T04:17:29;98927.69;;;14.37;61.44
6506;BME280;3286;49.858;8.768;2023-04-29T04:19:55;98935.00;;;14.34;60.90
6506;BME280;3286;49.858;8.768;2023-04-29T04:22:22;98944.06;;;14.02;61.70
6506;BME280;3286;49.858;8.768;2023-04-29T04:24:48;98940.75;;;14.23;61.40
6506;BME280;3286;49.858;8.768;2023-04-29T04:27:15;98946.16;;;14.30;60.13
6506;BME280;3286;49.858;8.768;2023-04-29T04:29:41;98944.63;;;14.66;59.60
6506;BME280;3286;49.858;8.768;2023-04-29T04:32:09;98944.72;;;14.57;59.78
6506;BME280;3286;49.858;8.768;2023-04-29T04:34:36;98954.38;;;14.73;59.29
6506;BME280;3286;49.858;8.768;2023-04-29T04:37:03;98949.69;;;15.05;58.08
6506;BME280;3286;49.858;8.768;2023-04-29T04:39:30;98953.25;;;14.53;59.37
6506;BME280;3286;49.858;8.768;2023-04-29T04:41:57;98949.59;;;14.54;59.70
6506;BME280;3286;49.858;8.768;2023-04-29T04:44:24;98954.75;;;14.70;59.03
6506;BME280;3286;49.858;8.768;2023-04-29T04:46:50;98956.13;;;14.81;58.83
6506;BME280;3286;49.858;8.768;2023-04-29T04:49:18;98956.75;;;14.68;58.82
6506;BME280;3286;49.858;8.768;2023-04-29T04:51:45;98963.84;;;14.76;58.33
6506;BME280;3286;49.858;8.768;2023-04-29T04:54:11;98961.88;;;15.00;57.85
6506;BME280;3286;49.858;8.768;2023-04-29T04:56:38;98970.22;;;15.12;57.73
6506;BME280;3286;49.858;8.768;2023-04-29T04:59:05;98964.81;;;15.05;57.71
6506;BME280;3286;49.858;8.768;2023-04-29T05:01:31;98976.00;;;15.15;57.27
6506;BME280;3286;49.858;8.768;2023-04-29T05:03:58;98980.69;;;15.13;57.67
6506;BME280;3286;49.858;8.768;2023-04-29T05:06:28;98977.75;;;15.08;57.83
6506;BME280;3286;49.858;8.768;2023-04-29T05:08:54;98985.44;;;15.18;57.17
6506;BME280;3286;49.858;8.768;2023-04-29T05:11:21;98978.16;;;14.90;57.98
6506;BME280;3286;49.858;8.768;2023-04-29T05:13:47;98989.22;;;15.09;57.87
6506;BME280;3286;49.858;8.768;2023-04-29T05:16:14;98986.84;;;14.84;58.78
6506;BME280;3286;49.858;8.768;2023-04-29T05:18:42;98988.69;;;14.98;57.99
6506;BME280;3286;49.858;8.768;2023-04-29T05:21:09;98995.66;;;14.99;58.00
6506;BME280;3286;49.858;8.768;2023-04-29T05:23:37;98999.41;;;15.05;58.04
6506;BME280;3286;49.858;8.768;2023-04-29T05:26:04;99000.88;;;15.07;57.92
6506;BME280;3286;49.858;8.768;2023-04-29T05:28:31;98997.47;;;14.99;58.15
6506;BME280;3286;49.858;8.768;2023-04-29T05:30:57;99006.25;;;15.29;57.68
6506;BME280;3286;49.858;8.768;2023-04-29T05:33:24;99015.72;;;15.32;57.17
6506;BME280;3286;49.858;8.768;2023-04-29T05:35:51;99015.56;;;15.03;57.45
6506;BME280;3286;49.858;8.768;2023-04-29T05:38:17;99017.88;;;15.43;57.67
6506;BME280;3286;49.858;8.768;2023-04-29T05:40:45;99021.25;;;15.15;56.84
6506;BME280;3286;49.858;8.768;2023-04-29T05:43:14;99031.91;;;14.00;60.69
6506;BME280;3286;49.858;8.768;2023-04-29T05:45:40;99031.31;;;15.05;57.79
6506;BME280;3286;49.858;8.768;2023-04-29T05:48:07;99035.44;;;15.53;56.29
6506;BME280;3286;49.858;8.768;2023-04-29T05:50:34;99043.44;;;14.92;57.50
6506;BME280;3286;49.858;8.768;2023-04-29T05:53:00;99048.94;;;15.21;56.84
6506;BME280;3286;49.858;8.768;2023-04-29T05:55:27;99044.78;;;15.48;55.87
6506;BME280;3286;49.858;8.768;2023-04-29T05:57:55;99047.81;;;15.45;56.24
6506;BME280;3286;49.858;8.768;2023-04-29T06:00:22;99052.44;;;15.37;56.10
6506;BME280;3286;49.858;8.768;2023-04-29T06:02:48;99066.91;;;15.04;57.26
6506;BME280;3286;49.858;8.768;2023-04-29T06:05:15;99066.91;;;14.74;58.02
6506;BME280;3286;49.858;8.768;2023-04-29T06:07:42;99071.44;;;14.65;57.81
6506;BME280;3286;49.858;8.768;2023-04-29T06:10:09;99067.81;;;15.26;56.42
6506;BME280;3286;49.858;8.768;2023-04-29T06:12:36;99067.94;;;15.33;56.36
6506;BME280;3286;49.858;8.768;2023-04-29T06:15:05;99073.75;;;15.73;55.08
6506;BME280;3286;49.858;8.768;2023-04-29T06:17:32;99080.38;;;15.62;55.90
6506;BME280;3286;49.858;8.768;2023-04-29T06:19:58;99083.72;;;15.19;56.65
6506;BME280;3286;49.858;8.768;2023-04-29T06:22:26;99085.25;;;15.74;55.68
6506;BME280;3286;49.858;8.768;2023-04-29T06:24:52;99090.66;;;15.65;55.39
6506;BME280;3286;49.858;8.768;2023-04-29T06:27:19;99088.84;;;15.21;56.74
6506;BME280;3286;49.858;8.768;2023-04-29T06:29:46;99085.88;;;15.91;54.45
6506;BME280;3286;49.858;8.768;2023-04-29T06:32:14;99094.34;;;15.49;56.27
6506;BME280;3286;49.858;8.768;2023-04-29T06:34:41;99090.38;;;15.75;56.07
6506;BME280;3286;49.858;8.768;2023-04-29T06:37:07;99098.50;;;16.47;54.08
6506;BME280;3286;49.858;8.768;2023-04-29T06:39:34;99101.03;;;15.45;55.56
6506;BME280;3286;49.858;8.768;2023-04-29T06:42:01;99100.47;;;15.95;54.97
6506;BME280;3286;49.858;8.768;2023-04-29T06:44:27;99099.31;;;15.38;54.45
6506;BME280;3286;49.858;8.768;2023-04-29T06:46:54;99096.53;;;15.91;53.02
6506;BME280;3286;49.858;8.768;2023-04-29T06:49:22;99101.91;;;16.34;50.16
6506;BME280;3286;49.858;8.768;2023-04-29T06:51:49;99107.78;;;16.30;51.42
6506;BME280;3286;49.858;8.768;2023-04-29T06:54:15;99097.50;;;15.90;52.62
6506;BME280;3286;49.858;8.768;2023-04-29T06:56:42;99117.41;;;15.12;53.34
6506;BME280;3286;49.858;8.768;2023-04-29T06:59:08;99119.34;;;14.33;54.44
6506;BME280;3286;49.858;8.768;2023-04-29T07:01:36;99115.00;;;15.47;51.75
6506;BME280;3286;49.858;8.768;2023-04-29T07:04:04;99117.50;;;14.57;52.67
6506;BME280;3286;49.858;8.768;2023-04-29T07:06:32;99123.81;;;15.33;50.91
6506;BME280;3286;49.858;8.768;2023-04-29T07:08:59;99119.34;;;14.10;54.33
6506;BME280;3286;49.858;8.768;2023-04-29T07:11:26;99131.50;;;13.65;54.33
6506;BME280;3286;49.858;8.768;2023-04-29T07:13:52;99126.03;;;14.29;53.29
6506;BME280;3286;49.858;8.768;2023-04-29T07:16:19;99134.38;;;13.38;56.39
6506;BME280;3286;49.858;8.768;2023-04-29T07:18:46;99134.09;;;13.81;53.76
6506;BME280;3286;49.858;8.768;2023-04-29T07:21:12;99142.72;;;13.83;53.82
6506;BME280;3286;49.858;8.768;2023-04-29T07:23:40;99142.63;;;14.00;53.34
6506;BME280;3286;49.858;8.768;2023-04-29T07:26:09;99149.53;;;14.41;51.55
6506;BME280;3286;49.858;8.768;2023-04-29T07:28:36;99157.47;;;14.72;51.31
6506;BME280;3286;49.858;8.768;2023-04-29T07:31:03;99150.78;;;14.76;51.43
6506;BME280;3286;49.858;8.768;2023-04-29T07:33:29;99153.28;;;15.31;51.16
6506;BME280;3286;49.858;8.768;2023-04-29T07:35:57;99151.03;;;14.90;51.10
6506;BME280;3286;49.858;8.768;2023-04-29T07:38:23;99151.66;;;14.92;50.52
6506;BME280;3286;49.858;8.768;2023-04-29T07:40:51;99157.66;;;14.39;51.58
6506;BME280;3286;49.858;8.768;2023-04-29T07:43:18;99165.41;;;14.49;52.48
6506;BME280;3286;49.858;8.768;2023-04-29T07:45:45;99158.88;;;15.37;50.35
6506;BME280;3286;49.858;8.768;2023-04-29T07:48:11;99167.50;;;15.39;50.51
6506;BME280;3286;49.858;8.768;2023-04-29T07:50:38;99166.13;;;14.89;50.88
6506;BME280;3286;49.858;8.768;2023-04-29T07:53:05;99171.50;;;15.04;49.68
6506;BME280;3286;49.858;8.768;2023-04-29T07:55:31;99175.03;;;14.97;51.74
6506;BME280;3286;49.858;8.768;2023-04-29T07:57:59;99182.41;;;14.71;50.61
6506;BME280;3286;49.858;8.768;2023-04-29T08:00:26;99179.91;;;15.61;51.21
6506;BME280;3286;49.858;8.768;2023-04-29T08:02:54;99184.91;;;14.88;50.18
6506;BME280;3286;49.858;8.768;2023-04-29T08:05:21;99192.50;;;15.53;48.77
6506;BME280;3286;49.858;8.768;2023-04-29T08:07:48;99186.34;;;15.82;47.52
6506;BME280;3286;49.858;8.768;2023-04-29T08:10:15;99190.19;;;15.64;47.78
6506;BME280;3286;49.858;8.768;2023-04-29T08:12:44;99206.63;;;14.76;50.19
6506;BME280;3286;49.858;8.768;2023-04-29T08:15:12;99201.38;;;15.45;49.02
6506;BME280;3286;49.858;8.768;2023-04-29T08:17:39;99206.00;;;14.66;49.22
6506;BME280;3286;49.858;8.768;2023-04-29T08:20:06;99205.69;;;14.92;49.58
6506;BME280;3286;49.858;8.768;2023-04-29T08:22:33;99198.84;;;14.67;49.76
6506;BME280;3286;49.858;8.768;2023-04-29T08:25:00;99205.50;;;15.32;48.40
6506;BME280;3286;49.858;8.768;2023-04-29T08:27:29;99205.69;;;15.31;49.44
6506;BME280;3286;49.858;8.768;2023-04-29T08:29:56;99210.56;;;15.42;49.18
6506;BME280;3286;49.858;8.768;2023-04-29T08:32:23;99212.94;;;15.37;48.24
6506;BME280;3286;49.858;8.768;2023-04-29T08:34:50;99221.06;;;14.51;50.04
6506;BME280;3286;49.858;8.768;2023-04-29T08:37:17;99216.09;;;14.16;50.44
6506;BME280;3286;49.858;8.768;2023-04-29T08:39:44;99214.75;;;15.21;49.03
6506;BME280;3286;49.858;8.768;2023-04-29T08:42:12;99219.13;;;15.53;47.53
6506;BME280;3286;49.858;8.768;2023-04-29T08:44:39;99217.66;;;15.65;47.71
6506;BME280;3286;49.858;8.768;2023-04-29T08:47:06;99220.00;;;14.60;48.55
6506;BME280;3286;49.858;8.768;2023-04-29T08:49:35;99224.06;;;15.02;47.64
6506;BME280;3286;49.858;8.768;2023-04-29T08:52:03;99221.00;;;14.90;48.76
6506;BME280;3286;49.858;8.768;2023-04-29T08:54:30;99225.81;;;15.63;47.87
6506;BME280;3286;49.858;8.768;2023-04-29T08:56:57;99226.09;;;15.54;48.53
6506;BME280;3286;49.858;8.768;2023-04-29T08:59:27;99231.97;;;15.11;48.95
6506;BME280;3286;49.858;8.768;2023-04-29T09:01:55;99227.66;;;15.63;47.83
6506;BME280;3286;49.858;8.768;2023-04-29T09:04:30;99230.50;;;15.76;48.07
6506;BME280;3286;49.858;8.768;2023-04-29T09:07:04;99230.34;;;14.55;49.10
6506;BME280;3286;49.858;8.768;2023-04-29T09:09:33;99236.88;;;14.75;50.05
6506;BME280;3286;49.858;8.768;2023-04-29T09:12:00;99237.16;;;15.04;49.38
6506;BME280;3286;49.858;8.768;2023-04-29T09:14:27;99233.00;;;14.55;50.57
6506;BME280;3286;49.858;8.768;2023-04-29T09:16:57;99234.88;;;15.01;50.10
6506;BME280;3286;49.858;8.768;2023-04-29T09:19:31;99234.50;;;15.42;48.60
6506;BME280;3286;49.858;8.768;2023-04-29T09:21:58;99241.06;;;15.55;49.30
6506;BME280;3286;49.858;8.768;2023-04-29T09:24:26;99247.34;;;14.77;50.73
6506;BME280;3286;49.858;8.768;2023-04-29T09:26:54;99243.63;;;15.48;49.29
6506;BME280;3286;49.858;8.768;2023-04-29T09:29:21;99245.09;;;15.81;49.01
6506;BME280;3286;49.858;8.768;2023-04-29T09:31:49;99249.22;;;15.53;48.17
6506;BME280;3286;49.858;8.768;2023-04-29T09:34:29;99243.28;;;16.85;46.34
6506;BME280;3286;49.858;8.768;2023-04-29T09:36:57;99257.09;;;15.31;51.12
6506;BME280;3286;49.858;8.768;2023-04-29T09:39:25;99252.44;;;16.54;47.73
6506;BME280;3286;49.858;8.768;2023-04-29T09:41:59;99260.16;;;15.73;49.09
6506;BME280;3286;49.858;8.768;2023-04-29T09:44:28;99265.19;;;15.15;49.72
6506;BME280;3286;49.858;8.768;2023-04-29T09:46:55;99263.53;;;15.14;49.08
6506;BME280;3286;49.858;8.768;2023-04-29T09:49:23;99269.03;;;15.35;50.10
6506;BME280;3286;49.858;8.768;2023-04-29T09:51:55;99262.94;;;15.80;48.86
6506;BME280;3286;49.858;8.768;2023-04-29T09:54:23;99264.53;;;16.19;47.81
6506;BME280;3286;49.858;8.768;2023-04-29T09:56:52;99261.31;;;16.83;47.02
6506;BME280;3286;49.858;8.768;2023-04-29T09:59:19;99269.59;;;15.46;49.22
6506;BME280;3286;49.858;8.768;2023-04-29T10:01:48;99268.06;;;15.82;48.42
6506;BME280;3286;49.858;8.768;2023-04-29T10:04:16;99265.47;;;15.58;48.87
6506;BME280;3286;49.858;8.768;2023-04-29T10:06:44;99273.19;;;14.20;52.62
6506;BME280;3286;49.858;8.768;2023-04-29T10:09:13;99270.56;;;14.83;52.20
6506;BME280;3286;49.858;8.768;2023-04-29T10:11:43;99270.38;;;15.85;48.88
6506;BME280;3286;49.858;8.768;2023-04-29T10:14:12;99276.50;;;14.62;51.53
6506;BME280;3286;49.858;8.768;2023-04-29T10:16:45;99281.09;;;15.23;51.35
6506;BME280;3286;49.858;8.768;2023-04-29T10:19:15;99284.03;;;15.28;50.20
6506;BME280;3286;49.858;8.768;2023-04-29T10:21:44;99283.47;;;14.95;50.20
6506;BME280;3286;49.858;8.768;2023-04-29T10:24:13;99279.84;;;15.11;50.06
6506;BME280;3286;49.858;8.768;2023-04-29T10:26:42;99280.56;;;15.28;49.79
6506;BME280;3286;49.858;8.768;2023-04-29T10:29:11;99272.84;;;15.33;49.73
6506;BME280;3286;49.858;8.768;2023-04-29T10:31:40;99277.16;;;15.87;48.18
6506;BME280;3286;49.858;8.768;2023-04-29T10:34:08;99276.41;;;15.63;48.11
6506;BME280;3286;49.858;8.768;2023-04-29T10:36:37;99275.34;;;16.18;48.05
6506;BME280;3286;49.858;8.768;2023-04-29T10:39:07;99280.03;;;16.31;48.91
6506;BME280;3286;49.858;8.768;2023-04-29T10:41:43;99277.13;;;16.62;46.43
6506;BME280;3286;49.858;8.768;2023-04-29T10:44:13;99279.25;;;16.52;47.64
6506;BME280;3286;49.858;8.768;2023-04-29T10:46:39;99279.78;;;16.62;48.10
6506;BME280;3286;49.858;8.768;2023-04-29T10:49:06;99284.22;;;15.65;48.09
6506;BME280;3286;49.858;8.768;2023-04-29T10:51:34;99287.69;;;15.50;49.67
6506;BME280;3286;49.858;8.768;2023-04-29T10:54:06;99281.53;;;15.88;49.54
6506;BME280;3286;49.858;8.768;2023-04-29T10:56:37;99290.16;;;16.20;49.12
6506;BME280;3286;49.858;8.768;2023-04-29T10:59:04;99280.84;;;16.31;49.43
6506;BME280;3286;49.858;8.768;2023-04-29T11:01:48;99278.03;;;17.06;47.20
6506;BME280;3286;49.858;8.768;2023-04-29T11:04:15;99289.31;;;15.90;48.02
6506;BME280;3286;49.858;8.768;2023-04-29T11:06:47;99280.56;;;16.26;47.89
6506;BME280;3286;49.858;8.768;2023-04-29T11:09:18;99281.69;;;16.32;47.78
6506;BME280;3286;49.858;8.768;2023-04-29T11:11:56;99277.31;;;17.19;44.64
6506;BME280;3286;49.858;8.768;2023-04-29T11:14:26;99280.00;;;17.19;46.21
6506;BME280;3286;49.858;8.768;2023-04-29T11:16:56;99282.78;;;16.38;46.92
6506;BME280;3286;49.858;8.768;2023-04-29T11:19:25;99278.28;;;16.08;48.10
6506;BME280;3286;49.858;8.768;2023-04-29T11:22:25;99268.97;;;16.49;46.57
6506;BME280;3286;49.858;8.768;2023-04-29T11:24:54;99280.34;;;15.53;48.88
6506;BME280;3286;49.858;8.768;2023-04-29T11:27:22;99280.69;;;16.18;47.79
6506;BME280;3286;49.858;8.768;2023-04-29T11:29:51;99281.00;;;16.60;47.52
6506;BME280;3286;49.858;8.768;2023-04-29T11:32:21;99285.38;;;16.68;48.26
6506;BME280;3286;49.858;8.768;2023-04-29T11:34:48;99294.31;;;15.93;49.20
6506;BME280;3286;49.858;8.768;2023-04-29T11:37:20;99292.66;;;15.92;48.81
6506;BME280;3286;49.858;8.768;2023-04-29T11:39:47;99287.78;;;16.62;48.52
6506;BME280;3286;49.858;8.768;2023-04-29T11:42:18;99296.75;;;15.41;50.80
6506;BME280;3286;49.858;8.768;2023-04-29T11:44:45;99294.59;;;15.98;50.29
6506;BME280;3286;49.858;8.768;2023-04-29T11:47:12;99287.13;;;16.24;47.96
6506;BME280;3286;49.858;8.768;2023-04-29T11:49:39;99293.44;;;14.61;50.22
6506;BME280;3286;49.858;8.768;2023-04-29T11:52:07;99290.84;;;14.53;51.67
6506;BME280;3286;49.858;8.768;2023-04-29T11:54:34;99284.88;;;15.05;51.54
6506;BME280;3286;49.858;8.768;2023-04-29T11:57:00;99292.63;;;16.22;47.40
6506;BME280;3286;49.858;8.768;2023-04-29T11:59:30;99285.69;;;15.68;47.80
6506;BME280;3286;49.858;8.768;2023-04-29T12:01:57;99288.44;;;15.59;47.90
6506;BME280;3286;49.858;8.768;2023-04-29T12:04:24;99285.50;;;15.69;49.25
6506;BME280;3286;49.858;8.768;2023-04-29T12:06:52;99287.59;;;16.12;47.01
6506;BME280;3286;49.858;8.768;2023-04-29T12:09:19;99292.56;;;15.62;48.12
6506;BME280;3286;49.858;8.768;2023-04-29T12:11:46;99292.81;;;16.35;45.20
6506;BME280;3286;49.858;8.768;2023-04-29T12:14:12;99288.25;;;16.66;45.34
6506;BME280;3286;49.858;8.768;2023-04-29T12:16:39;99294.50;;;15.68;46.24
6506;BME280;3286;49.858;8.768;2023-04-29T12:19:07;99299.34;;;16.03;45.79
6506;BME280;3286;49.858;8.768;2023-04-29T12:21:35;99289.75;;;16.90;44.97
6506;BME280;3286;49.858;8.768;2023-04-29T12:24:03;99292.31;;;16.99;44.31
6506;BME280;3286;49.858;8.768;2023-04-29T12:26:30;99281.81;;;16.97;44.69
6506;BME280;3286;49.858;8.768;2023-04-29T12:28:58;99283.06;;;17.45;44.54
6506;BME280;3286;49.858;8.768;2023-04-29T12:31:31;99280.66;;;17.50;45.63
6506;BME280;3286;49.858;8.768;2023-04-29T12:33:59;99293.03;;;17.86;42.37
6506;BME280;3286;49.858;8.768;2023-04-29T12:36:27;99278.75;;;18.49;42.15
6506;BME280;3286;49.858;8.768;2023-04-29T12:38:53;99280.25;;;18.65;43.10
6506;BME280;3286;49.858;8.768;2023-04-29T12:44:14;99276.91;;;19.46;38.15
6506;BME280;3286;49.858;8.768;2023-04-29T12:46:41;99277.03;;;19.98;40.22
6506;BME280;3286;49.858;8.768;2023-04-29T12:49:07;99271.91;;;19.76;39.78
6506;BME280;3286;49.858;8.768;2023-04-29T12:51:34;99278.25;;;20.09;38.83
6506;BME280;3286;49.858;8.768;2023-04-29T12:54:03;99277.84;;;18.84;40.50
6506;BME280;3286;49.858;8.768;2023-04-29T12:56:31;99282.44;;;19.91;38.65
6506;BME280;3286;49.858;8.768;2023-04-29T12:59:04;99274.50;;;20.69;35.54
6506;BME280;3286;49.858;8.768;2023-04-29T13:01:32;99279.38;;;20.40;35.07
6506;BME280;3286;49.858;8.768;2023-04-29T13:03:59;99281.00;;;19.48;36.77
6506;BME280;3286;49.858;8.768;2023-04-29T13:06:26;99288.00;;;19.16;38.46
6506;BME280;3286;49.858;8.768;2023-04-29T13:08:52;99285.78;;;18.57;39.01
6506;BME280;3286;49.858;8.768;2023-04-29T13:11:19;99276.34;;;18.75;40.19
6506;BME280;3286;49.858;8.768;2023-04-29T13:13:46;99282.13;;;18.72;41.23
6506;BME280;3286;49.858;8.768;2023-04-29T13:16:12;99282.31;;;18.15;41.25
6506;BME280;3286;49.858;8.768;2023-04-29T13:18:40;99281.34;;;18.22;41.07
6506;BME280;3286;49.858;8.768;2023-04-29T13:21:07;99285.06;;;18.28;40.93
6506;BME280;3286;49.858;8.768;2023-04-29T13:23:33;99280.56;;;18.35;39.81
6506;BME280;3286;49.858;8.768;2023-04-29T13:26:00;99281.72;;;17.05;42.75
6506;BME280;3286;49.858;8.768;2023-04-29T13:28:26;99285.56;;;18.52;41.82